Flight Track Log - Related Links

Times and Time Zones

All times are in EDT time to prevent confusion due to time zone crossing. See the N566UA flight status page for this flight to view local times or setup timezone preferences in your user account.

Time Position Orientation Groundspeed Altitude Reporting Facility
EDT Latitude Longitude Course Direction KTS MPH feet Rate Location/Type
Sat 02:13:04 PM 37.6500 -122.3500 65° Northeast 174 200 1,800  Level Northern Cal TRACON
Sat 02:14:04 PM 37.6833 -122.3000 50° Northeast 214 246 3,800 2,400 Climbing Northern Cal TRACON
Sat 02:15:00 PM 37.6359 -122.4265 119° Southeast  Level FlightAware Approximate
Sat 02:15:04 PM 37.7333 -122.2167 53° Northeast 258 297 6,600  Level Northern Cal TRACON
Sat 02:16:00 PM 37.6431 -122.2777 72° East  Level FlightAware Approximate
Sat 02:16:04 PM 37.7500 -122.1333 76° East 280 322 9,300  Level Northern Cal TRACON
Sat 02:17:00 PM 37.6859 -122.1257 67° East  Level FlightAware Approximate
Sat 02:17:13 PM 37.7933 -122.0083 66° East 330 380 10,900  Level Oakland Center
Sat 02:18:00 PM 37.7407 -121.9799 65° Northeast  Level FlightAware Approximate
Sat 02:18:15 PM 37.8278 -121.8833 71° East 375 432 13,200  Level Oakland Center
Sat 02:19:16 PM 37.8633 -121.7553 71° East 388 447 15,600 2,213 Climbing Oakland Center
Sat 02:20:17 PM 37.9025 -121.6208 70° East 405 466 17,700 2,049 Climbing Oakland Center
Sat 02:21:19 PM 37.9456 -121.4644 71° East 424 488 19,800 1,854 Climbing Oakland Center
Sat 02:22:20 PM 37.9867 -121.3206 70° East 436 502 21,500 1,672 Climbing Oakland Center
Sat 02:23:21 PM 38.0153 -121.1639 77° East 456 525 23,200 1,659 Climbing Oakland Center
Sat 02:24:23 PM 38.0392 -121.0008 79° East 470 541 24,900 1,463 Climbing Oakland Center
Sat 02:25:24 PM 38.0631 -120.8350 80° East 481 554 26,200 1,328 Climbing Oakland Center
Sat 02:26:25 PM 38.0875 -120.6661 80° East 489 563 27,600 1,268 Climbing Oakland Center
Sat 02:27:27 PM 38.1125 -120.4942 79° East 497 572 28,800 1,122 Climbing Oakland Center
Sat 02:28:28 PM 38.1428 -120.2814 80° East 512 589 29,900 1,279 Climbing Oakland Center
Sat 02:29:29 PM 38.1675 -120.1025 80° East 516 594 31,400 1,306 Climbing Oakland Center
Sat 02:30:32 PM 38.1922 -119.9250 80° East 513 590 32,600 1,122 Climbing Oakland Center
Sat 02:31:32 PM 38.2161 -119.7472 80° East 512 589 33,700 1,041 Climbing Oakland Center
Sat 02:32:33 PM 38.2400 -119.5694 80° East 512 589 34,700 634 Climbing Oakland Center
Sat 02:33:35 PM 38.2636 -119.3939 80° East 510 587 35,000 146 Climbing Oakland Center
Sat 02:34:36 PM 38.2869 -119.2150 81° East 514 592 35,000  Level Oakland Center
Sat 02:35:37 PM 38.3097 -119.0364 81° East 514 592 35,000  Level Oakland Center
Sat 02:36:39 PM 38.3378 -118.8211 81° East 517 595 35,000  Level Oakland Center
Sat 02:37:40 PM 38.3600 -118.6403 81° East 519 597 35,000  Level Oakland Center
Sat 02:38:42 PM 38.3828 -118.4606 81° East 518 596 35,000  Level Oakland Center
Sat 02:39:43 PM 38.4050 -118.2803 81° East 517 595 35,000  Level Oakland Center
Sat 02:40:44 PM 38.4286 -118.0786 81° East 522 601 35,000  Level Oakland Center
Sat 02:41:46 PM 38.4506 -117.8944 81° East 522 601 35,000  Level Oakland Center
Sat 02:42:47 PM 38.4717 -117.7117 82° East 519 597 35,000  Level Oakland Center
Sat 02:43:52 PM 38.4939 -117.5253 81° East 524 603 35,000  Level Salt Lake Center
Sat 02:44:54 PM 38.5144 -117.3389 82° East 524 603 35,000  Level Salt Lake Center
Sat 02:45:55 PM 38.5275 -117.1497 85° East 528 608 35,000  Level Salt Lake Center
Sat 02:46:52 PM 38.5375 -116.9597 86° East 533 613 35,000  Level Oakland Center
Sat 02:47:54 PM 38.5464 -116.7694 87° East 534 615 35,000  Level Oakland Center
Sat 02:48:55 PM 38.5547 -116.5792 87° East 534 615 35,000  Level Oakland Center
Sat 02:49:56 PM 38.5633 -116.3892 87° East 536 617 35,000  Level Oakland Center
Sat 02:51:03 PM 38.5736 -116.1639 87° East 531 611 35,000  Level Salt Lake Center
Sat 02:52:05 PM 38.5814 -115.9758 87° East 529 609 35,000  Level Salt Lake Center
Sat 02:53:06 PM 38.5894 -115.7878 87° East 529 609 35,000  Level Salt Lake Center
Sat 02:54:08 PM 38.5969 -115.6011 87° East 527 606 35,000  Level Salt Lake Center
Sat 02:55:09 PM 38.6042 -115.4122 87° East 532 612 35,000  Level Salt Lake Center
Sat 02:56:11 PM 38.6122 -115.2097 87° East 533 613 35,000  Level Salt Lake Center
Sat 02:57:12 PM 38.6181 -115.0194 88° East 535 616 35,000  Level Salt Lake Center
Sat 02:58:14 PM 38.6228 -114.8308 88° East 534 615 35,000  Level Salt Lake Center
Sat 02:59:15 PM 38.6261 -114.6428 89° East 530 610 35,000  Level Salt Lake Center
Sat 03:00:17 PM 38.6319 -114.4503 88° East 537 618 35,000  Level Salt Lake Center
Sat 03:01:18 PM 38.6417 -114.2556 86° East 543 625 35,000  Level Salt Lake Center
Sat 03:02:20 PM 38.6481 -114.0261 88° East 541 623 35,000  Level Salt Lake Center
Sat 03:03:21 PM 38.6528 -113.8353 88° East 538 619 35,000  Level Salt Lake Center
Sat 03:04:23 PM 38.6561 -113.6467 89° East 532 612 35,000  Level Salt Lake Center
Sat 03:05:24 PM 38.6611 -113.4550 88° East 535 616 35,000  Level Salt Lake Center
Sat 03:06:25 PM 38.6647 -113.2642 89° East 536 617 35,000  Level Salt Lake Center
Sat 03:07:27 PM 38.6678 -113.0756 89° East 533 613 35,000  Level Salt Lake Center
Sat 03:08:29 PM 38.6706 -112.8867 89° East 531 611 35,000  Level Salt Lake Center
Sat 03:09:30 PM 38.6731 -112.6958 89° East 534 615 35,000  Level Salt Lake Center
Sat 03:10:31 PM 38.6761 -112.5067 89° East 533 613 35,000  Level Salt Lake Center
Sat 03:11:32 PM 38.6781 -112.3181 89° East 531 611 35,000  Level Salt Lake Center
Sat 03:12:34 PM 38.6814 -112.0897 89° East 533 613 35,000  Level Salt Lake Center
Sat 03:13:35 PM 38.6831 -111.8989 89° East 536 617 35,000  Level Salt Lake Center
Sat 03:14:37 PM 38.6839 -111.7097 90° East 532 612 35,000  Level Salt Lake Center
Sat 03:15:38 PM 38.6844 -111.5175 90° East 538 619 35,000  Level Salt Lake Center
Sat 03:16:39 PM 38.6867 -111.3267 89° East 538 619 35,000  Level Salt Lake Center
Sat 03:17:41 PM 38.6847 -111.1347 91° East 540 621 35,000  Level Salt Lake Center
Sat 03:18:42 PM 38.6853 -110.9453 90° East 535 616 35,000  Level Salt Lake Center
Sat 03:19:44 PM 38.6842 -110.7294 90° East 538 619 35,000  Level Salt Lake Center
Sat 03:20:45 PM 38.6839 -110.5497 90° East 531 611 35,000  Level Salt Lake Center
Sat 03:21:47 PM 38.6819 -110.3419 91° East 525 604 35,000  Level Salt Lake Center
Sat 03:22:23 PM 38.6800 -110.2522 92° East 521 600 35,000  Level Denver Center
Sat 03:23:25 PM 38.6783 -110.0492 91° East 515 593 35,000  Level Denver Center
Sat 03:23:50 PM 38.6794 -109.9936 89° East 513 590 35,000  Level Salt Lake Center
Sat 03:24:51 PM 38.6922 -109.7942 85° East 504 580 35,000  Level Salt Lake Center
Sat 03:25:28 PM 38.7033 -109.6808 83° East 500 575 35,000  Level Denver Center
Sat 03:26:29 PM 38.7183 -109.5106 84° East 506 582 35,000  Level Denver Center
Sat 03:27:31 PM 38.7331 -109.3428 84° East 500 575 35,000  Level Denver Center
Sat 03:28:32 PM 38.7528 -109.1469 83° East 498 573 35,000  Level Denver Center
Sat 03:29:34 PM 38.7686 -108.9800 83° East 496 571 35,000  Level Denver Center
Sat 03:30:35 PM 38.7864 -108.7850 83° East 495 570 35,000  Level Denver Center
Sat 03:31:37 PM 38.8017 -108.6175 83° East 495 570 35,000  Level Denver Center
Sat 03:32:38 PM 38.8181 -108.4231 84° East 492 566 35,000  Level Denver Center
Sat 03:33:39 PM 38.8328 -108.2533 84° East 500 575 35,000  Level Denver Center
Sat 03:34:41 PM 38.8464 -108.0853 84° East 498 573 35,000  Level Denver Center
Sat 03:35:42 PM 38.8619 -107.8869 84° East 500 575 35,000  Level Denver Center
Sat 03:36:44 PM 38.8767 -107.7175 84° East 500 575 35,000  Level Denver Center
Sat 03:37:45 PM 38.8917 -107.5197 84° East 500 575 35,000  Level Denver Center
Sat 03:38:46 PM 38.9053 -107.3503 84° East 500 575 35,000  Level Denver Center
Sat 03:39:48 PM 38.9194 -107.1539 85° East 498 573 35,000  Level Denver Center
Sat 03:40:49 PM 38.9314 -106.9850 85° East 496 571 35,000  Level Denver Center
Sat 03:41:51 PM 38.9447 -106.8156 84° East 499 574 35,000  Level Denver Center
Sat 03:42:52 PM 38.9583 -106.6164 85° East 503 579 35,000  Level Denver Center
Sat 03:43:54 PM 38.9694 -106.4442 85° East 505 581 35,000  Level Denver Center
Sat 03:44:55 PM 38.9831 -106.2414 85° East 509 586 35,000  Level Denver Center
Sat 03:45:56 PM 38.9939 -106.0600 86° East 498 573 35,000  Level Denver Center
Sat 03:46:58 PM 39.0006 -105.8825 87° East 495 570 35,000  Level Denver Center
Sat 03:47:59 PM 39.0019 -105.7050 89° East 494 568 35,000  Level Denver Center
Sat 03:49:01 PM 39.0022 -105.5264 90° East 496 571 35,000  Level Denver Center
Sat 03:50:02 PM 39.0036 -105.3486 89° East 495 570 35,000  Level Denver Center
Sat 03:51:03 PM 39.0036 -105.1714 90° East 495 570 35,000  Level Denver Center
Sat 03:52:05 PM 39.0042 -104.9942 90° East 494 568 35,000  Level Denver Center
Sat 03:53:06 PM 39.0044 -104.8144 90° East 498 573 35,000  Level Denver Center
Sat 03:54:08 PM 39.0036 -104.6364 90° East 498 573 35,000  Level Denver Center
Sat 03:55:09 PM 39.0036 -104.4569 90° East 500 575 35,000  Level Denver Center
Sat 03:56:10 PM 39.0022 -104.2481 90° East 499 574 35,000  Level Denver Center
Sat 03:57:12 PM 39.0000 -104.0686 91° East 500 575 35,000  Level Denver Center
Sat 03:58:13 PM 39.0092 -103.8894 86° East 500 575 35,000  Level Denver Center
Sat 03:59:15 PM 39.0236 -103.7133 84° East 495 570 35,000  Level Denver Center
Sat 04:00:16 PM 39.0392 -103.5353 84° East 497 572 35,000  Level Denver Center
Sat 04:01:17 PM 39.0525 -103.3581 84° East 496 571 35,000  Level Denver Center
Sat 04:02:19 PM 39.0669 -103.1814 84° East 494 568 35,000  Level Denver Center
Sat 04:03:20 PM 39.0803 -103.0050 84° East 493 567 35,000  Level Denver Center
Sat 04:04:21 PM 39.0914 -102.8558 84° East 497 572 35,000  Level Denver Center
Sat 04:05:23 PM 39.1064 -102.6461 85° East 494 568 35,000  Level Denver Center
Sat 04:06:24 PM 39.1203 -102.4489 85° East 494 568 35,000  Level Denver Center
Sat 04:07:26 PM 39.1333 -102.2786 84° East 499 574 35,000  Level Denver Center
Sat 04:08:27 PM 39.1447 -102.1092 85° East 496 571 35,000  Level Denver Center
Sat 04:09:28 PM 39.1656 -101.9125 82° East 498 573 35,000  Level Denver Center
Sat 04:10:30 PM 39.1900 -101.7450 79° East 497 572 35,000  Level Denver Center
Sat 04:11:31 PM 39.2172 -101.5603 79° East 496 571 35,000  Level Denver Center
Sat 04:12:32 PM 39.2408 -101.3911 80° East 501 577 35,000  Level Denver Center
Sat 04:13:46 PM 39.2689 -101.1947 79° East 500 575 35,000  Level Denver Center
Sat 04:14:47 PM 39.2964 -100.9969 80° East 503 579 35,000  Level Denver Center
Sat 04:15:48 PM 39.3194 -100.8264 80° East 506 582 35,000  Level Denver Center
Sat 04:16:50 PM 39.3464 -100.6272 80° East 505 581 35,000  Level Denver Center
Sat 04:17:51 PM 39.3725 -100.4294 80° East 504 580 35,000  Level Denver Center
Sat 04:18:53 PM 39.3953 -100.2600 80° East 503 579 35,000  Level Denver Center
Sat 04:19:54 PM 39.4208 -100.0600 81° East 505 581 35,000  Level Denver Center
Sat 04:20:56 PM 39.4425 -99.8878 81° East 508 585 35,000  Level Denver Center
Sat 04:21:57 PM 39.4644 -99.7164 81° East 506 582 35,000  Level Denver Center
Sat 04:22:59 PM 39.4914 -99.5067 80° East 506 582 35,000  Level Denver Center
Sat 04:24:00 PM 39.5131 -99.3283 81° East 505 581 35,000  Level Denver Center
Sat 04:25:01 PM 39.5344 -99.1494 81° East 504 580 35,000  Level Denver Center
Sat 04:26:03 PM 39.5564 -98.9692 81° East 507 583 35,000  Level Denver Center
Sat 04:27:04 PM 39.5772 -98.7911 81° East 502 578 35,000  Level Denver Center
Sat 04:28:05 PM 39.5986 -98.6119 81° East 503 579 35,000  Level Denver Center
Sat 04:29:07 PM 39.6197 -98.4319 81° East 506 582 35,000  Level Denver Center
Sat 04:30:08 PM 39.6394 -98.2531 82° East 504 580 35,000  Level Denver Center
Sat 04:31:02 PM 39.6589 -98.0719 82° East 507 583 35,000  Level Minneapolis Center
Sat 04:32:04 PM 39.6789 -97.8917 82° East 507 583 35,000  Level Minneapolis Center
Sat 04:33:05 PM 39.6992 -97.7117 82° East 506 582 35,000  Level Minneapolis Center
Sat 04:34:07 PM 39.7178 -97.5339 82° East 508 585 35,000  Level Minneapolis Center
Sat 04:35:09 PM 39.7375 -97.3519 82° East 509 586 35,000  Level Minneapolis Center
Sat 04:36:10 PM 39.7600 -97.1333 82° East 510 587 35,000  Level Minneapolis Center
Sat 04:37:13 PM 39.7756 -96.9778 83° East 511 588 35,000  Level Kansas City Center
Sat 04:38:17 PM 39.7972 -96.7583 83° East 517 595 35,000  Level Kansas City Center
Sat 04:39:18 PM 39.8161 -96.5767 82° East 510 587 35,000  Level Kansas City Center
Sat 04:40:18 PM 39.8339 -96.3919 83° East 514 592 35,000  Level Kansas City Center
Sat 04:41:22 PM 39.8503 -96.2092 83° East 511 588 35,000  Level Kansas City Center
Sat 04:42:23 PM 39.8703 -95.9989 83° East 513 590 35,000  Level Kansas City Center
Sat 04:43:24 PM 39.8869 -95.8208 83° East 514 592 35,000  Level Kansas City Center
Sat 04:44:28 PM 39.9028 -95.6431 83° East 515 593 35,000  Level Kansas City Center
Sat 04:45:27 PM 39.9211 -95.4369 83° East 512 589 35,000  Level Kansas City Center
Sat 04:46:30 PM 39.9361 -95.2603 84° East 511 588 35,000  Level Kansas City Center
Sat 04:47:32 PM 39.9544 -95.0536 83° East 512 589 35,000  Level Kansas City Center
Sat 04:48:33 PM 39.9689 -94.8772 84° East 510 587 35,000  Level Kansas City Center
Sat 04:49:34 PM 39.9831 -94.6997 84° East 511 588 35,000  Level Kansas City Center
Sat 04:50:36 PM 39.9997 -94.4928 84° East 513 590 35,000  Level Kansas City Center
Sat 04:51:39 PM 40.0136 -94.3147 84° East 515 593 35,000  Level Kansas City Center
Sat 04:52:40 PM 40.0297 -94.1092 84° East 511 588 35,000  Level Kansas City Center
Sat 04:53:43 PM 40.0461 -93.9483 82° East 519 597 35,000  Level Kansas City Center
Sat 04:54:44 PM 40.0883 -93.7378 75° East 508 585 35,000  Level Kansas City Center
Sat 04:55:45 PM 40.1269 -93.5614 74° East 507 583 35,000  Level Kansas City Center
Sat 04:56:46 PM 40.1639 -93.3844 75° East 508 585 35,000  Level Kansas City Center
Sat 04:57:49 PM 40.2006 -93.2072 75° East 509 586 35,000  Level Kansas City Center
Sat 04:58:54 PM 40.2378 -93.0211 75° East 508 585 35,000  Level Kansas City Center
Sat 04:59:54 PM 40.2786 -92.8233 75° East 506 582 35,000  Level Kansas City Center
Sat 05:00:55 PM 40.3136 -92.6550 75° East 502 578 35,000  Level Kansas City Center
Sat 05:01:58 PM 40.3436 -92.4767 77° East 506 582 35,000  Level Kansas City Center
Sat 05:02:58 PM 40.3886 -92.2689 74° East 510 587 35,000  Level Kansas City Center
Sat 05:04:02 PM 40.4231 -92.0911 76° East 508 585 35,000 -192 Level Kansas City Center
Sat 05:05:03 PM 40.4569 -91.9119 76° East 509 586 34,600 -689 Descending Kansas City Center
Sat 05:06:04 PM 40.4911 -91.7300 76° East 515 593 33,600 -938 Descending Kansas City Center
Sat 05:06:39 PM 40.5117 -91.6225 76° East 514 592 33,100 -433 Descending Chicago Center
Sat 05:07:41 PM 40.5456 -91.4436 76° East 509 586 32,900 -48 Descending Chicago Center
Sat 05:08:43 PM 40.6028 -91.2594 68° East 510 587 33,000 49 Climbing Chicago Center
Sat 05:09:44 PM 40.6608 -91.0892 66° East 509 586 33,000 -537 Level Chicago Center
Sat 05:10:46 PM 40.7206 -90.9175 65° Northeast 513 590 31,900 -976 Descending Chicago Center
Sat 05:11:47 PM 40.7783 -90.7436 66° East 517 595 31,000 -439 Descending Chicago Center
Sat 05:12:49 PM 40.8486 -90.5336 66° East 519 597 31,000 -726 Level Chicago Center
Sat 05:13:51 PM 40.9061 -90.3611 66° East 509 586 29,500 -1,415 Descending Chicago Center
Sat 05:14:52 PM 40.9597 -90.1997 66° East 493 567 28,100 -1,463 Descending Chicago Center
Sat 05:15:54 PM 41.0161 -90.0264 67° East 490 564 26,500 -1,512 Descending Chicago Center
Sat 05:16:55 PM 41.0711 -89.8631 66° East 481 554 25,000 -1,220 Descending Chicago Center
Sat 05:17:57 PM 41.1225 -89.7033 67° East 471 542 24,000 -1,113 Descending Chicago Center
Sat 05:18:59 PM 41.1761 -89.5486 65° Northeast 461 531 22,700 -1,500 Descending Chicago Center
Sat 05:20:01 PM 41.2356 -89.4036 61° Northeast 446 513 20,900 -1,951 Descending Chicago Center
Sat 05:21:02 PM 41.2903 -89.2658 62° Northeast 424 488 18,700 -2,098 Descending Chicago Center
Sat 05:22:04 PM 41.3494 -89.1186 62° Northeast 414 476 16,600 -2,000 Descending Chicago Center
Sat 05:23:05 PM 41.4011 -88.9889 62° Northeast 400 460 14,600 -2,000 Descending Chicago Center
Sat 05:24:07 PM 41.4503 -88.8658 62° Northeast 380 437 12,500 -1,742 Descending Chicago Center
Sat 05:25:09 PM 41.4978 -88.7444 62° Northeast 370 426 11,000 -683 Descending Chicago Center
Sat 05:26:10 PM 41.5533 -88.6031 62° Northeast 362 417 11,100 49 Climbing Chicago Center
Sat 05:27:12 PM 41.6117 -88.4986 53° Northeast 357 411 11,100 -49 Level Chicago Center
Sat 05:28:13 PM 41.6744 -88.4006 49° Northeast 349 402 11,000 -49 Descending Chicago Center
Sat 05:29:15 PM 41.7375 -88.3006 50° Northeast 351 404 11,000  Level Chicago Center
Sat 05:30:18 PM 41.8006 -88.2000 50° Northeast 351 404 11,000  Level Chicago Center
Sat 05:31:18 PM 41.8419 -88.0919 63° Northeast 323 372 11,000 -689 Level Chicago Center
Sat 05:32:20 PM 41.8611 -87.9828 77° East 300 345 9,600 -1,736 Descending Chicago Center
Sat 05:33:19 PM 41.8667 -87.8667 86° East 282 325 7,500 -1,912 Descending Chicago TRACON
Sat 05:34:13 PM 41.8833 -87.7833 75° East 269 310 6,000 -1,263 Descending Chicago TRACON
Sat 05:35:13 PM 41.9000 -87.6833 77° East 261 300 5,100 -900 Descending Chicago TRACON

Login

Don't have an account? Register now (free) for customized features, flight alerts, and more!